sensor_id;sensor_type;location;lat;lon;timestamp;P1;durP1;ratioP1;P2;durP2;ratioP2
1957;SDS011;979;51.076;13.748;2024-02-21T00:57:08;17.20;;;16.03;;
1957;SDS011;979;51.076;13.748;2024-02-21T00:59:50;17.37;;;16.17;;
1957;SDS011;979;51.076;13.748;2024-02-21T01:02:49;18.40;;;16.67;;
1957;SDS011;979;51.076;13.748;2024-02-21T01:05:44;17.33;;;16.00;;
1957;SDS011;979;51.076;13.748;2024-02-21T01:08:27;16.47;;;15.47;;
1957;SDS011;979;51.076;13.748;2024-02-21T01:11:01;17.03;;;15.93;;
1957;SDS011;979;51.076;13.748;2024-02-21T01:13:40;17.33;;;16.13;;
1957;SDS011;979;51.076;13.748;2024-02-21T01:16:11;17.30;;;16.30;;
1957;SDS011;979;51.076;13.748;2024-02-21T01:18:40;16.43;;;15.37;;
1957;SDS011;979;51.076;13.748;2024-02-21T01:21:17;17.43;;;16.33;;
1957;SDS011;979;51.076;13.748;2024-02-21T01:23:55;17.03;;;16.10;;
1957;SDS011;979;51.076;13.748;2024-02-21T01:26:34;16.80;;;15.80;;
1957;SDS011;979;51.076;13.748;2024-02-21T01:29:18;16.80;;;15.67;;
1957;SDS011;979;51.076;13.748;2024-02-21T01:31:55;18.17;;;16.30;;
1957;SDS011;979;51.076;13.748;2024-02-21T01:34:45;17.47;;;16.27;;
1957;SDS011;979;51.076;13.748;2024-02-21T01:37:32;17.43;;;16.20;;
1957;SDS011;979;51.076;13.748;2024-02-21T01:40:25;17.67;;;16.27;;
1957;SDS011;979;51.076;13.748;2024-02-21T01:43:18;16.67;;;15.70;;
1957;SDS011;979;51.076;13.748;2024-02-21T01:45:57;17.57;;;16.67;;
1957;SDS011;979;51.076;13.748;2024-02-21T01:48:37;17.47;;;15.93;;
1957;SDS011;979;51.076;13.748;2024-02-21T01:51:24;17.80;;;16.70;;
1957;SDS011;979;51.076;13.748;2024-02-21T01:53:53;16.47;;;15.23;;
1957;SDS011;979;51.076;13.748;2024-02-21T01:56:31;18.67;;;16.90;;
1957;SDS011;979;51.076;13.748;2024-02-21T01:59:11;17.30;;;16.47;;
1957;SDS011;979;51.076;13.748;2024-02-21T02:01:51;17.50;;;16.43;;
1957;SDS011;979;51.076;13.748;2024-02-21T02:05:00;17.60;;;16.10;;
1957;SDS011;979;51.076;13.748;2024-02-21T02:07:42;17.60;;;16.80;;
1957;SDS011;979;51.076;13.748;2024-02-21T02:10:18;18.03;;;16.77;;
1957;SDS011;979;51.076;13.748;2024-02-21T02:13:00;17.17;;;16.17;;
1957;SDS011;979;51.076;13.748;2024-02-21T02:15:52;17.37;;;15.93;;
1957;SDS011;979;51.076;13.748;2024-02-21T02:18:42;18.07;;;16.40;;
1957;SDS011;979;51.076;13.748;2024-02-21T02:21:29;17.87;;;16.47;;
1957;SDS011;979;51.076;13.748;2024-02-21T02:24:11;16.90;;;15.70;;
1957;SDS011;979;51.076;13.748;2024-02-21T02:26:54;18.00;;;16.33;;
1957;SDS011;979;51.076;13.748;2024-02-21T02:29:38;17.30;;;16.13;;
1957;SDS011;979;51.076;13.748;2024-02-21T02:32:11;24.63;;;22.20;;
1957;SDS011;979;51.076;13.748;2024-02-21T02:34:39;20.43;;;16.33;;
1957;SDS011;979;51.076;13.748;2024-02-21T02:37:08;18.07;;;16.87;;
1957;SDS011;979;51.076;13.748;2024-02-21T02:39:45;17.47;;;16.27;;
1957;SDS011;979;51.076;13.748;2024-02-21T02:42:27;17.47;;;16.33;;
1957;SDS011;979;51.076;13.748;2024-02-21T02:45:18;17.37;;;16.27;;
1957;SDS011;979;51.076;13.748;2024-02-21T02:47:56;17.87;;;16.03;;
1957;SDS011;979;51.076;13.748;2024-02-21T02:50:37;18.33;;;16.53;;
1957;SDS011;979;51.076;13.748;2024-02-21T02:53:16;18.33;;;17.20;;
1957;SDS011;979;51.076;13.748;2024-02-21T02:56:10;18.10;;;16.80;;
1957;SDS011;979;51.076;13.748;2024-02-21T02:58:45;17.57;;;16.27;;
1957;SDS011;979;51.076;13.748;2024-02-21T03:01:28;18.03;;;16.80;;
1957;SDS011;979;51.076;13.748;2024-02-21T03:04:06;17.03;;;16.00;;
1957;SDS011;979;51.076;13.748;2024-02-21T03:06:57;17.27;;;16.27;;
1957;SDS011;979;51.076;13.748;2024-02-21T03:09:37;18.43;;;16.70;;
1957;SDS011;979;51.076;13.748;2024-02-21T03:12:18;17.43;;;16.47;;
1957;SDS011;979;51.076;13.748;2024-02-21T03:15:02;17.70;;;16.37;;
1957;SDS011;979;51.076;13.748;2024-02-21T03:17:47;18.17;;;16.80;;
1957;SDS011;979;51.076;13.748;2024-02-21T03:20:46;17.47;;;16.33;;
1957;SDS011;979;51.076;13.748;2024-02-21T03:23:27;18.70;;;17.50;;
1957;SDS011;979;51.076;13.748;2024-02-21T03:26:10;17.47;;;16.40;;
1957;SDS011;979;51.076;13.748;2024-02-21T03:29:07;17.53;;;16.40;;
1957;SDS011;979;51.076;13.748;2024-02-21T03:31:47;17.23;;;16.03;;
1957;SDS011;979;51.076;13.748;2024-02-21T03:34:25;18.93;;;17.63;;
1957;SDS011;979;51.076;13.748;2024-02-21T03:37:02;17.30;;;16.40;;
1957;SDS011;979;51.076;13.748;2024-02-21T03:39:47;16.37;;;15.50;;
1957;SDS011;979;51.076;13.748;2024-02-21T03:42:31;18.30;;;16.80;;
1957;SDS011;979;51.076;13.748;2024-02-21T03:45:21;18.00;;;16.80;;
1957;SDS011;979;51.076;13.748;2024-02-21T03:48:07;16.90;;;16.00;;
1957;SDS011;979;51.076;13.748;2024-02-21T03:50:46;17.00;;;15.97;;
1957;SDS011;979;51.076;13.748;2024-02-21T03:53:28;17.03;;;16.03;;
1957;SDS011;979;51.076;13.748;2024-02-21T03:56:04;18.77;;;17.80;;
1957;SDS011;979;51.076;13.748;2024-02-21T03:58:56;17.83;;;16.60;;
1957;SDS011;979;51.076;13.748;2024-02-21T04:01:41;17.67;;;16.47;;
1957;SDS011;979;51.076;13.748;2024-02-21T04:04:29;18.63;;;17.37;;
1957;SDS011;979;51.076;13.748;2024-02-21T04:07:08;19.63;;;18.00;;
1957;SDS011;979;51.076;13.748;2024-02-21T04:09:57;17.60;;;16.40;;
1957;SDS011;979;51.076;13.748;2024-02-21T04:12:30;19.90;;;18.30;;
1957;SDS011;979;51.076;13.748;2024-02-21T04:15:08;19.57;;;18.00;;
1957;SDS011;979;51.076;13.748;2024-02-21T04:17:54;17.00;;;16.10;;
1957;SDS011;979;51.076;13.748;2024-02-21T04:20:43;16.63;;;15.83;;
1957;SDS011;979;51.076;13.748;2024-02-21T04:23:22;17.83;;;16.43;;
1957;SDS011;979;51.076;13.748;2024-02-21T04:25:51;18.50;;;17.40;;
1957;SDS011;979;51.076;13.748;2024-02-21T04:28:20;17.60;;;16.13;;
1957;SDS011;979;51.076;13.748;2024-02-21T04:30:58;18.47;;;17.10;;
1957;SDS011;979;51.076;13.748;2024-02-21T04:33:41;17.20;;;15.93;;
1957;SDS011;979;51.076;13.748;2024-02-21T04:36:20;17.17;;;16.00;;
1957;SDS011;979;51.076;13.748;2024-02-21T04:39:02;16.93;;;16.00;;
1957;SDS011;979;51.076;13.748;2024-02-21T04:41:35;18.57;;;17.23;;
1957;SDS011;979;51.076;13.748;2024-02-21T04:44:13;18.23;;;17.23;;
1957;SDS011;979;51.076;13.748;2024-02-21T04:46:57;18.03;;;16.77;;
1957;SDS011;979;51.076;13.748;2024-02-21T04:49:39;26.43;;;17.23;;
1957;SDS011;979;51.076;13.748;2024-02-21T04:52:29;17.00;;;15.90;;
1957;SDS011;979;51.076;13.748;2024-02-21T04:55:12;16.60;;;15.90;;
1957;SDS011;979;51.076;13.748;2024-02-21T04:57:51;17.57;;;16.17;;
1957;SDS011;979;51.076;13.748;2024-02-21T05:00:36;17.87;;;16.57;;
1957;SDS011;979;51.076;13.748;2024-02-21T05:03:13;18.33;;;17.07;;
1957;SDS011;979;51.076;13.748;2024-02-21T05:08:51;15.23;;;14.57;;
1957;SDS011;979;51.076;13.748;2024-02-21T05:11:33;16.70;;;15.57;;
1957;SDS011;979;51.076;13.748;2024-02-21T05:14:10;17.57;;;16.43;;
1957;SDS011;979;51.076;13.748;2024-02-21T05:16:44;17.10;;;16.10;;
1957;SDS011;979;51.076;13.748;2024-02-21T05:19:30;17.57;;;16.07;;
1957;SDS011;979;51.076;13.748;2024-02-21T05:22:07;17.83;;;16.77;;
1957;SDS011;979;51.076;13.748;2024-02-21T05:24:48;18.87;;;17.40;;
1957;SDS011;979;51.076;13.748;2024-02-21T05:27:28;19.00;;;17.57;;
1957;SDS011;979;51.076;13.748;2024-02-21T05:30:06;18.00;;;17.10;;
1957;SDS011;979;51.076;13.748;2024-02-21T05:32:46;18.13;;;17.03;;
1957;SDS011;979;51.076;13.748;2024-02-21T05:35:21;17.77;;;16.63;;
1957;SDS011;979;51.076;13.748;2024-02-21T05:38:25;17.87;;;16.73;;
1957;SDS011;979;51.076;13.748;2024-02-21T05:41:05;17.50;;;16.70;;
1957;SDS011;979;51.076;13.748;2024-02-21T05:43:42;17.90;;;16.50;;
1957;SDS011;979;51.076;13.748;2024-02-21T05:46:24;17.60;;;16.50;;
1957;SDS011;979;51.076;13.748;2024-02-21T05:48:53;16.80;;;15.90;;
1957;SDS011;979;51.076;13.748;2024-02-21T05:51:22;18.63;;;17.43;;
1957;SDS011;979;51.076;13.748;2024-02-21T05:53:51;18.77;;;17.53;;
1957;SDS011;979;51.076;13.748;2024-02-21T05:56:25;18.37;;;17.17;;
1957;SDS011;979;51.076;13.748;2024-02-21T05:59:06;17.93;;;16.97;;
1957;SDS011;979;51.076;13.748;2024-02-21T06:01:50;18.80;;;17.47;;
1957;SDS011;979;51.076;13.748;2024-02-21T06:04:29;18.73;;;17.53;;
1957;SDS011;979;51.076;13.748;2024-02-21T06:07:09;18.30;;;17.30;;
1957;SDS011;979;51.076;13.748;2024-02-21T06:09:56;19.10;;;17.60;;
1957;SDS011;979;51.076;13.748;2024-02-21T06:12:44;18.20;;;17.00;;
1957;SDS011;979;51.076;13.748;2024-02-21T06:15:29;18.60;;;17.00;;
1957;SDS011;979;51.076;13.748;2024-02-21T06:18:01;18.53;;;17.00;;
1957;SDS011;979;51.076;13.748;2024-02-21T06:20:31;19.77;;;18.00;;
1957;SDS011;979;51.076;13.748;2024-02-21T06:23:48;18.97;;;17.50;;
1957;SDS011;979;51.076;13.748;2024-02-21T06:26:18;18.77;;;17.30;;
1957;SDS011;979;51.076;13.748;2024-02-21T06:28:50;18.67;;;17.50;;
1957;SDS011;979;51.076;13.748;2024-02-21T06:31:22;18.57;;;17.00;;
1957;SDS011;979;51.076;13.748;2024-02-21T06:33:51;18.33;;;17.20;;
1957;SDS011;979;51.076;13.748;2024-02-21T06:36:29;18.67;;;17.27;;
1957;SDS011;979;51.076;13.748;2024-02-21T06:38:58;18.77;;;17.60;;
1957;SDS011;979;51.076;13.748;2024-02-21T06:41:37;18.30;;;17.40;;
1957;SDS011;979;51.076;13.748;2024-02-21T06:44:11;19.63;;;18.40;;
1957;SDS011;979;51.076;13.748;2024-02-21T06:46:56;18.63;;;17.03;;
1957;SDS011;979;51.076;13.748;2024-02-21T06:49:48;17.27;;;16.23;;
1957;SDS011;979;51.076;13.748;2024-02-21T06:52:26;18.17;;;16.77;;
1957;SDS011;979;51.076;13.748;2024-02-21T06:55:06;17.13;;;16.23;;
1957;SDS011;979;51.076;13.748;2024-02-21T06:58:08;18.30;;;17.17;;
1957;SDS011;979;51.076;13.748;2024-02-21T07:00:56;18.33;;;17.07;;
1957;SDS011;979;51.076;13.748;2024-02-21T07:03:36;17.73;;;16.73;;
1957;SDS011;979;51.076;13.748;2024-02-21T07:06:28;18.20;;;17.13;;
1957;SDS011;979;51.076;13.748;2024-02-21T07:09:19;18.17;;;16.83;;
1957;SDS011;979;51.076;13.748;2024-02-21T07:11:53;18.07;;;16.47;;
1957;SDS011;979;51.076;13.748;2024-02-21T07:14:31;15.77;;;14.67;;
1957;SDS011;979;51.076;13.748;2024-02-21T07:17:18;17.50;;;16.30;;
1957;SDS011;979;51.076;13.748;2024-02-21T07:19:59;17.23;;;16.13;;
1957;SDS011;979;51.076;13.748;2024-02-21T07:22:39;18.73;;;17.20;;
1957;SDS011;979;51.076;13.748;2024-02-21T07:25:11;18.07;;;17.20;;
1957;SDS011;979;51.076;13.748;2024-02-21T07:27:45;19.20;;;17.30;;
1957;SDS011;979;51.076;13.748;2024-02-21T07:30:19;17.97;;;16.87;;
1957;SDS011;979;51.076;13.748;2024-02-21T07:32:48;18.97;;;17.20;;
1957;SDS011;979;51.076;13.748;2024-02-21T07:35:17;17.90;;;16.70;;
1957;SDS011;979;51.076;13.748;2024-02-21T07:38:02;18.07;;;16.57;;
1957;SDS011;979;51.076;13.748;2024-02-21T07:40:37;17.93;;;16.80;;
1957;SDS011;979;51.076;13.748;2024-02-21T07:43:16;17.37;;;16.43;;
1957;SDS011;979;51.076;13.748;2024-02-21T07:46:11;18.30;;;17.30;;
1957;SDS011;979;51.076;13.748;2024-02-21T07:48:55;18.10;;;16.77;;
1957;SDS011;979;51.076;13.748;2024-02-21T07:51:33;19.03;;;17.30;;
1957;SDS011;979;51.076;13.748;2024-02-21T07:54:24;17.43;;;16.17;;
1957;SDS011;979;51.076;13.748;2024-02-21T07:57:08;18.43;;;17.10;;
1957;SDS011;979;51.076;13.748;2024-02-21T07:59:54;17.93;;;17.07;;
1957;SDS011;979;51.076;13.748;2024-02-21T08:03:01;17.40;;;16.30;;
1957;SDS011;979;51.076;13.748;2024-02-21T08:05:57;18.83;;;17.60;;
1957;SDS011;979;51.076;13.748;2024-02-21T08:08:32;19.77;;;18.23;;
1957;SDS011;979;51.076;13.748;2024-02-21T08:11:22;17.60;;;16.47;;
1957;SDS011;979;51.076;13.748;2024-02-21T08:14:00;18.57;;;17.47;;
1957;SDS011;979;51.076;13.748;2024-02-21T08:16:48;19.37;;;17.97;;
1957;SDS011;979;51.076;13.748;2024-02-21T08:22:46;18.87;;;17.20;;
1957;SDS011;979;51.076;13.748;2024-02-21T08:25:31;15.90;;;15.30;;
1957;SDS011;979;51.076;13.748;2024-02-21T08:28:15;17.73;;;16.70;;
1957;SDS011;979;51.076;13.748;2024-02-21T08:30:55;17.13;;;16.27;;
1957;SDS011;979;51.076;13.748;2024-02-21T08:33:32;17.83;;;16.43;;
1957;SDS011;979;51.076;13.748;2024-02-21T08:36:52;17.90;;;16.80;;
1957;SDS011;979;51.076;13.748;2024-02-21T08:39:54;18.47;;;17.13;;
1957;SDS011;979;51.076;13.748;2024-02-21T08:42:48;17.50;;;16.50;;
1957;SDS011;979;51.076;13.748;2024-02-21T08:45:30;18.00;;;16.90;;
1957;SDS011;979;51.076;13.748;2024-02-21T08:48:14;17.10;;;15.80;;
1957;SDS011;979;51.076;13.748;2024-02-21T08:50:52;18.60;;;16.93;;
1957;SDS011;979;51.076;13.748;2024-02-21T08:53:28;17.37;;;16.40;;
1957;SDS011;979;51.076;13.748;2024-02-21T08:55:58;17.80;;;16.80;;
1957;SDS011;979;51.076;13.748;2024-02-21T08:58:26;18.10;;;17.00;;
1957;SDS011;979;51.076;13.748;2024-02-21T09:00:55;18.73;;;17.13;;
1957;SDS011;979;51.076;13.748;2024-02-21T09:03:23;18.43;;;17.07;;
1957;SDS011;979;51.076;13.748;2024-02-21T09:05:53;19.00;;;17.27;;
1957;SDS011;979;51.076;13.748;2024-02-21T09:08:21;18.80;;;17.23;;
1957;SDS011;979;51.076;13.748;2024-02-21T09:10:52;17.43;;;16.47;;
1957;SDS011;979;51.076;13.748;2024-02-21T09:13:21;18.70;;;17.03;;
1957;SDS011;979;51.076;13.748;2024-02-21T09:15:50;17.97;;;16.67;;
1957;SDS011;979;51.076;13.748;2024-02-21T09:18:19;18.73;;;17.53;;
1957;SDS011;979;51.076;13.748;2024-02-21T09:20:48;18.50;;;17.00;;
1957;SDS011;979;51.076;13.748;2024-02-21T09:23:18;17.53;;;16.23;;
1957;SDS011;979;51.076;13.748;2024-02-21T09:25:47;18.50;;;17.23;;
1957;SDS011;979;51.076;13.748;2024-02-21T09:28:18;17.90;;;16.70;;
1957;SDS011;979;51.076;13.748;2024-02-21T09:30:47;17.97;;;16.43;;
1957;SDS011;979;51.076;13.748;2024-02-21T09:33:21;18.10;;;16.97;;
1957;SDS011;979;51.076;13.748;2024-02-21T09:36:34;18.03;;;16.43;;
1957;SDS011;979;51.076;13.748;2024-02-21T09:39:08;16.77;;;15.63;;
1957;SDS011;979;51.076;13.748;2024-02-21T09:41:41;17.80;;;16.70;;
1957;SDS011;979;51.076;13.748;2024-02-21T09:44:17;17.57;;;16.33;;
1957;SDS011;979;51.076;13.748;2024-02-21T09:46:50;19.20;;;17.90;;
1957;SDS011;979;51.076;13.748;2024-02-21T09:49:29;18.17;;;16.80;;
1957;SDS011;979;51.076;13.748;2024-02-21T09:52:00;20.00;;;17.90;;
1957;SDS011;979;51.076;13.748;2024-02-21T09:54:33;17.30;;;16.00;;
1957;SDS011;979;51.076;13.748;2024-02-21T09:57:02;16.40;;;15.50;;
1957;SDS011;979;51.076;13.748;2024-02-21T09:59:33;19.10;;;17.30;;
1957;SDS011;979;51.076;13.748;2024-02-21T10:02:02;16.27;;;15.30;;
1957;SDS011;979;51.076;13.748;2024-02-21T10:04:31;17.30;;;16.10;;
1957;SDS011;979;51.076;13.748;2024-02-21T10:07:00;16.23;;;15.60;;
1957;SDS011;979;51.076;13.748;2024-02-21T10:09:32;16.50;;;15.50;;
1957;SDS011;979;51.076;13.748;2024-02-21T10:12:07;16.80;;;15.70;;
1957;SDS011;979;51.076;13.748;2024-02-21T10:14:39;18.17;;;17.17;;
1957;SDS011;979;51.076;13.748;2024-02-21T10:17:08;17.07;;;16.17;;
1957;SDS011;979;51.076;13.748;2024-02-21T10:19:45;16.50;;;15.80;;
1957;SDS011;979;51.076;13.748;2024-02-21T10:22:14;16.20;;;15.40;;
1957;SDS011;979;51.076;13.748;2024-02-21T10:24:43;16.10;;;15.20;;
1957;SDS011;979;51.076;13.748;2024-02-21T10:27:13;15.43;;;14.83;;
1957;SDS011;979;51.076;13.748;2024-02-21T10:29:42;16.83;;;15.57;;
1957;SDS011;979;51.076;13.748;2024-02-21T10:32:18;17.20;;;16.10;;
1957;SDS011;979;51.076;13.748;2024-02-21T10:34:47;17.77;;;16.53;;
1957;SDS011;979;51.076;13.748;2024-02-21T10:37:18;18.50;;;17.60;;
1957;SDS011;979;51.076;13.748;2024-02-21T10:39:49;17.50;;;16.37;;
1957;SDS011;979;51.076;13.748;2024-02-21T10:42:18;16.97;;;15.97;;
1957;SDS011;979;51.076;13.748;2024-02-21T10:44:51;17.27;;;16.03;;
1957;SDS011;979;51.076;13.748;2024-02-21T10:47:21;15.97;;;15.17;;
1957;SDS011;979;51.076;13.748;2024-02-21T10:50:02;17.40;;;16.30;;
1957;SDS011;979;51.076;13.748;2024-02-21T10:52:36;16.80;;;15.90;;
1957;SDS011;979;51.076;13.748;2024-02-21T10:55:16;17.40;;;16.10;;
1957;SDS011;979;51.076;13.748;2024-02-21T10:57:50;16.73;;;15.97;;
1957;SDS011;979;51.076;13.748;2024-02-21T11:00:21;17.27;;;16.23;;
1957;SDS011;979;51.076;13.748;2024-02-21T11:02:53;17.17;;;16.17;;
1957;SDS011;979;51.076;13.748;2024-02-21T11:05:22;17.90;;;16.60;;
1957;SDS011;979;51.076;13.748;2024-02-21T11:07:52;16.43;;;15.70;;
1957;SDS011;979;51.076;13.748;2024-02-21T11:10:20;17.30;;;16.07;;
1957;SDS011;979;51.076;13.748;2024-02-21T11:13:04;19.77;;;18.80;;
1957;SDS011;979;51.076;13.748;2024-02-21T11:15:36;16.60;;;15.60;;
1957;SDS011;979;51.076;13.748;2024-02-21T11:18:04;15.43;;;14.50;;
1957;SDS011;979;51.076;13.748;2024-02-21T11:20:34;16.90;;;16.00;;
1957;SDS011;979;51.076;13.748;2024-02-21T11:23:03;17.10;;;16.10;;
1957;SDS011;979;51.076;13.748;2024-02-21T11:25:32;17.87;;;16.40;;
1957;SDS011;979;51.076;13.748;2024-02-21T11:28:02;16.77;;;15.97;;
1957;SDS011;979;51.076;13.748;2024-02-21T11:30:34;16.53;;;15.73;;
1957;SDS011;979;51.076;13.748;2024-02-21T11:33:06;17.13;;;16.17;;
1957;SDS011;979;51.076;13.748;2024-02-21T11:35:35;17.33;;;16.63;;
1957;SDS011;979;51.076;13.748;2024-02-21T11:38:14;17.30;;;16.60;;
1957;SDS011;979;51.076;13.748;2024-02-21T11:40:44;16.47;;;15.70;;
1957;SDS011;979;51.076;13.748;2024-02-21T11:43:14;16.50;;;15.60;;
1957;SDS011;979;51.076;13.748;2024-02-21T11:45:45;16.03;;;15.33;;
1957;SDS011;979;51.076;13.748;2024-02-21T11:48:13;16.90;;;15.93;;
1957;SDS011;979;51.076;13.748;2024-02-21T11:50:42;18.03;;;16.63;;
1957;SDS011;979;51.076;13.748;2024-02-21T11:53:20;19.07;;;17.70;;
1957;SDS011;979;51.076;13.748;2024-02-21T11:55:49;17.70;;;16.50;;
1957;SDS011;979;51.076;13.748;2024-02-21T11:58:17;16.67;;;15.87;;
1957;SDS011;979;51.076;13.748;2024-02-21T12:00:49;17.17;;;16.37;;
1957;SDS011;979;51.076;13.748;2024-02-21T12:03:18;17.70;;;16.50;;
1957;SDS011;979;51.076;13.748;2024-02-21T12:05:47;17.60;;;16.50;;
1957;SDS011;979;51.076;13.748;2024-02-21T12:08:18;17.40;;;16.60;;
1957;SDS011;979;51.076;13.748;2024-02-21T12:10:47;19.03;;;18.03;;
1957;SDS011;979;51.076;13.748;2024-02-21T12:13:18;17.10;;;16.20;;
1957;SDS011;979;51.076;13.748;2024-02-21T12:15:52;16.47;;;15.60;;
1957;SDS011;979;51.076;13.748;2024-02-21T12:18:20;16.50;;;15.70;;
1957;SDS011;979;51.076;13.748;2024-02-21T12:20:49;17.60;;;16.50;;
1957;SDS011;979;51.076;13.748;2024-02-21T12:23:20;17.27;;;16.27;;
1957;SDS011;979;51.076;13.748;2024-02-21T12:25:50;17.30;;;16.30;;
1957;SDS011;979;51.076;13.748;2024-02-21T12:28:26;17.80;;;16.53;;
1957;SDS011;979;51.076;13.748;2024-02-21T12:31:01;16.20;;;15.60;;
1957;SDS011;979;51.076;13.748;2024-02-21T12:33:37;18.00;;;16.80;;
1957;SDS011;979;51.076;13.748;2024-02-21T12:36:05;16.53;;;15.60;;
1957;SDS011;979;51.076;13.748;2024-02-21T12:38:35;16.30;;;15.50;;
1957;SDS011;979;51.076;13.748;2024-02-21T12:41:04;16.20;;;15.50;;
1957;SDS011;979;51.076;13.748;2024-02-21T12:43:32;17.63;;;16.60;;
1957;SDS011;979;51.076;13.748;2024-02-21T12:46:05;17.13;;;16.40;;
1957;SDS011;979;51.076;13.748;2024-02-21T12:48:34;17.30;;;16.40;;
1957;SDS011;979;51.076;13.748;2024-02-21T12:51:04;17.77;;;16.97;;
1957;SDS011;979;51.076;13.748;2024-02-21T12:53:33;16.00;;;15.40;;
1957;SDS011;979;51.076;13.748;2024-02-21T12:56:02;17.00;;;16.30;;
1957;SDS011;979;51.076;13.748;2024-02-21T12:58:32;17.33;;;16.50;;
1957;SDS011;979;51.076;13.748;2024-02-21T13:01:05;17.67;;;16.87;;
1957;SDS011;979;51.076;13.748;2024-02-21T13:03:34;16.80;;;16.03;;
1957;SDS011;979;51.076;13.748;2024-02-21T13:06:05;17.43;;;16.63;;
1957;SDS011;979;51.076;13.748;2024-02-21T13:08:34;17.43;;;16.63;;
1957;SDS011;979;51.076;13.748;2024-02-21T13:11:06;17.20;;;16.50;;
1957;SDS011;979;51.076;13.748;2024-02-21T13:13:35;18.33;;;17.47;;
1957;SDS011;979;51.076;13.748;2024-02-21T13:16:03;17.70;;;16.90;;
1957;SDS011;979;51.076;13.748;2024-02-21T13:18:34;16.87;;;16.27;;
1957;SDS011;979;51.076;13.748;2024-02-21T13:21:04;18.23;;;17.33;;
1957;SDS011;979;51.076;13.748;2024-02-21T13:23:33;17.30;;;16.47;;
1957;SDS011;979;51.076;13.748;2024-02-21T13:26:02;16.60;;;15.80;;
1957;SDS011;979;51.076;13.748;2024-02-21T13:28:32;16.20;;;15.60;;
1957;SDS011;979;51.076;13.748;2024-02-21T13:31:00;17.00;;;16.20;;
1957;SDS011;979;51.076;13.748;2024-02-21T13:33:33;17.37;;;16.67;;
1957;SDS011;979;51.076;13.748;2024-02-21T13:36:03;17.40;;;16.60;;
1957;SDS011;979;51.076;13.748;2024-02-21T13:38:36;17.47;;;16.80;;
1957;SDS011;979;51.076;13.748;2024-02-21T13:41:09;16.83;;;16.03;;
1957;SDS011;979;51.076;13.748;2024-02-21T13:44:36;16.47;;;15.77;;
1957;SDS011;979;51.076;13.748;2024-02-21T13:47:30;17.10;;;16.17;;
1957;SDS011;979;51.076;13.748;2024-02-21T14:09:46;17.63;;;16.73;;
1957;SDS011;979;51.076;13.748;2024-02-21T14:42:21;18.50;;;17.00;;
1957;SDS011;979;51.076;13.748;2024-02-21T14:45:01;18.23;;;17.20;;
1957;SDS011;979;51.076;13.748;2024-02-21T14:47:48;17.93;;;16.80;;
1957;SDS011;979;51.076;13.748;2024-02-21T14:50:57;17.07;;;16.03;;
1957;SDS011;979;51.076;13.748;2024-02-21T14:53:33;16.33;;;15.43;;
1957;SDS011;979;51.076;13.748;2024-02-21T14:56:15;16.37;;;15.77;;
1957;SDS011;979;51.076;13.748;2024-02-21T14:58:58;16.00;;;15.40;;
1957;SDS011;979;51.076;13.748;2024-02-21T15:01:46;16.47;;;15.47;;
1957;SDS011;979;51.076;13.748;2024-02-21T15:04:51;16.33;;;15.73;;
1957;SDS011;979;51.076;13.748;2024-02-21T15:07:29;17.70;;;16.47;;
1957;SDS011;979;51.076;13.748;2024-02-21T15:10:21;16.73;;;16.00;;
1957;SDS011;979;51.076;13.748;2024-02-21T15:13:23;18.03;;;16.63;;
1957;SDS011;979;51.076;13.748;2024-02-21T15:27:42;17.10;;;16.30;;
1957;SDS011;979;51.076;13.748;2024-02-21T15:30:57;15.70;;;15.10;;
1957;SDS011;979;51.076;13.748;2024-02-21T15:33:31;15.63;;;14.73;;
1957;SDS011;979;51.076;13.748;2024-02-21T15:36:05;17.63;;;16.53;;
1957;SDS011;979;51.076;13.748;2024-02-21T15:38:40;15.27;;;14.57;;
1957;SDS011;979;51.076;13.748;2024-02-21T15:41:11;17.30;;;16.30;;
1957;SDS011;979;51.076;13.748;2024-02-21T15:43:41;17.80;;;16.50;;
1957;SDS011;979;51.076;13.748;2024-02-21T15:46:14;15.73;;;14.90;;
1957;SDS011;979;51.076;13.748;2024-02-21T15:48:44;16.70;;;15.47;;
1957;SDS011;979;51.076;13.748;2024-02-21T15:51:14;17.27;;;16.20;;
1957;SDS011;979;51.076;13.748;2024-02-21T15:53:46;14.00;;;13.70;;
1957;SDS011;979;51.076;13.748;2024-02-21T15:56:47;13.10;;;12.80;;
1957;SDS011;979;51.076;13.748;2024-02-21T15:59:49;12.20;;;12.00;;
1957;SDS011;979;51.076;13.748;2024-02-21T16:02:21;12.00;;;11.80;;
1957;SDS011;979;51.076;13.748;2024-02-21T16:05:01;12.10;;;11.90;;
1957;SDS011;979;51.076;13.748;2024-02-21T16:07:38;12.00;;;11.80;;
1957;SDS011;979;51.076;13.748;2024-02-21T16:10:07;11.73;;;11.53;;
1957;SDS011;979;51.076;13.748;2024-02-21T16:12:39;12.10;;;11.90;;
1957;SDS011;979;51.076;13.748;2024-02-21T16:15:10;14.23;;;13.93;;
1957;SDS011;979;51.076;13.748;2024-02-21T16:17:39;11.80;;;11.60;;
1957;SDS011;979;51.076;13.748;2024-02-21T16:20:11;11.70;;;11.50;;
1957;SDS011;979;51.076;13.748;2024-02-21T16:22:42;11.90;;;11.70;;
1957;SDS011;979;51.076;13.748;2024-02-21T16:25:13;12.30;;;12.10;;
1957;SDS011;979;51.076;13.748;2024-02-21T16:27:45;12.00;;;11.80;;
1957;SDS011;979;51.076;13.748;2024-02-21T16:30:14;11.67;;;11.47;;
1957;SDS011;979;51.076;13.748;2024-02-21T16:32:44;12.10;;;11.90;;
1957;SDS011;979;51.076;13.748;2024-02-21T16:35:16;12.40;;;12.20;;
1957;SDS011;979;51.076;13.748;2024-02-21T16:37:46;11.80;;;11.60;;
1957;SDS011;979;51.076;13.748;2024-02-21T16:40:15;12.10;;;11.90;;
1957;SDS011;979;51.076;13.748;2024-02-21T16:42:49;11.60;;;11.40;;
1957;SDS011;979;51.076;13.748;2024-02-21T16:45:22;12.90;;;12.60;;
1957;SDS011;979;51.076;13.748;2024-02-21T16:48:02;11.50;;;11.30;;
1957;SDS011;979;51.076;13.748;2024-02-21T16:51:04;12.90;;;12.60;;
1957;SDS011;979;51.076;13.748;2024-02-21T16:53:37;11.20;;;11.00;;
1957;SDS011;979;51.076;13.748;2024-02-21T16:56:13;11.97;;;11.77;;
1957;SDS011;979;51.076;13.748;2024-02-21T16:58:45;12.50;;;12.20;;
1957;SDS011;979;51.076;13.748;2024-02-21T17:01:14;11.40;;;11.20;;
1957;SDS011;979;51.076;13.748;2024-02-21T17:04:04;21.37;;;19.80;;
1957;SDS011;979;51.076;13.748;2024-02-21T17:30:50;22.50;;;21.10;;
1957;SDS011;979;51.076;13.748;2024-02-21T17:33:56;25.67;;;23.77;;
1957;SDS011;979;51.076;13.748;2024-02-21T17:37:03;25.50;;;23.30;;
1957;SDS011;979;51.076;13.748;2024-02-21T17:40:08;22.37;;;20.47;;
1957;SDS011;979;51.076;13.748;2024-02-21T17:43:14;23.10;;;21.30;;
1957;SDS011;979;51.076;13.748;2024-02-21T17:57:06;22.33;;;20.40;;
1957;SDS011;979;51.076;13.748;2024-02-21T18:00:12;22.30;;;20.50;;
1957;SDS011;979;51.076;13.748;2024-02-21T18:03:22;22.43;;;20.83;;
1957;SDS011;979;51.076;13.748;2024-02-21T18:06:07;22.50;;;20.53;;
1957;SDS011;979;51.076;13.748;2024-02-21T18:09:23;23.30;;;20.90;;
1957;SDS011;979;51.076;13.748;2024-02-21T18:12:28;23.40;;;21.40;;
1957;SDS011;979;51.076;13.748;2024-02-21T18:15:18;25.43;;;23.13;;
1957;SDS011;979;51.076;13.748;2024-02-21T18:18:05;23.73;;;21.73;;
1957;SDS011;979;51.076;13.748;2024-02-21T18:20:45;23.30;;;21.10;;
1957;SDS011;979;51.076;13.748;2024-02-21T18:23:31;22.53;;;20.50;;
1957;SDS011;979;51.076;13.748;2024-02-21T18:26:37;24.67;;;22.17;;
1957;SDS011;979;51.076;13.748;2024-02-21T18:29:22;24.27;;;21.70;;
1957;SDS011;979;51.076;13.748;2024-02-21T18:32:23;21.77;;;20.17;;
1957;SDS011;979;51.076;13.748;2024-02-21T18:35:08;23.63;;;21.27;;
1957;SDS011;979;51.076;13.748;2024-02-21T18:41:18;21.40;;;19.80;;